Time;durP1;ratioP1;P1;durP2;ratioP2;P2;SDS_P1;SDS_P2;PMS_P1;PMS_P2;Temp;Humidity;BMP_temperature;BMP_pressure;BME280_temperature;BME280_humidity;BME280_pressure;Samples;Min_cycle;Max_cycle;Signal;HPM_P1;HPM_P2
2021/12/30 00:00:48;;;;;;;28.08;10.50;;;;;;;10.09;100.00;100984.69;5090035;28;20020;-69
2021/12/30 00:03:14;;;;;;;29.33;10.95;;;;;;;10.12;100.00;100980.00;5070464;28;20102;-70
2021/12/30 00:05:40;;;;;;;25.83;8.93;;;;;;;10.14;100.00;100999.25;5070419;28;20630;-70
2021/12/30 00:08:06;;;;;;;30.15;11.23;;;;;;;10.13;100.00;101001.09;5069466;28;20028;-70
2021/12/30 00:10:32;;;;;;;30.27;8.55;;;;;;;10.15;100.00;100996.41;5074850;28;20081;-70
2021/12/30 00:12:57;;;;;;;25.80;10.70;;;;;;;10.16;100.00;101008.72;5089032;28;20028;-70
2021/12/30 00:15:23;;;;;;;23.17;8.05;;;;;;;10.16;100.00;101000.72;5089790;28;20028;-70
2021/12/30 00:17:49;;;;;;;27.73;7.97;;;;;;;10.19;100.00;101005.69;5089678;28;20028;-70
2021/12/30 00:20:15;;;;;;;26.33;8.10;;;;;;;10.18;100.00;101000.53;5089734;28;20054;-70
2021/12/30 00:22:41;;;;;;;26.58;7.53;;;;;;;10.20;100.00;101014.50;5089564;28;20566;-70
2021/12/30 00:25:09;;;;;;;23.33;7.00;;;;;;;10.21;100.00;101014.31;5089460;28;20040;-69
2021/12/30 00:27:34;;;;;;;19.95;6.10;;;;;;;10.19;100.00;101004.84;5079859;28;20054;-70
2021/12/30 00:30:00;;;;;;;25.02;7.25;;;;;;;10.21;100.00;101016.16;5089151;28;20032;-70
2021/12/30 00:32:25;;;;;;;21.50;6.93;;;;;;;10.22;100.00;101017.81;5089395;28;20028;-70
2021/12/30 00:34:51;;;;;;;26.35;8.52;;;;;;;10.19;100.00;101020.84;5089336;28;20471;-70
2021/12/30 00:37:17;;;;;;;21.70;6.90;;;;;;;10.23;100.00;101024.78;5089595;28;20034;-70
2021/12/30 00:39:42;;;;;;;29.23;7.57;;;;;;;10.23;100.00;101028.28;5089184;28;20107;-70
2021/12/30 00:42:08;;;;;;;25.50;8.32;;;;;;;10.27;100.00;101029.59;5089327;28;20638;-70
2021/12/30 00:44:33;;;;;;;22.25;7.45;;;;;;;10.26;100.00;101017.22;5089272;28;20085;-70
2021/12/30 00:46:59;;;;;;;23.95;7.75;;;;;;;10.34;100.00;101026.97;5089343;28;20054;-70
2021/12/30 00:49:25;;;;;;;23.63;8.85;;;;;;;10.37;100.00;101034.59;5089170;28;20046;-70
2021/12/30 00:51:52;;;;;;;23.88;6.15;;;;;;;10.40;100.00;101042.22;5089142;28;20031;-70
2021/12/30 00:54:17;;;;;;;24.30;6.15;;;;;;;10.43;100.00;101044.50;5089320;28;20145;-70
2021/12/30 00:56:42;;;;;;;22.52;8.68;;;;;;;10.45;100.00;101042.47;5089280;28;20119;-70
2021/12/30 00:59:08;;;;;;;30.02;8.13;;;;;;;10.49;100.00;101041.06;5089186;28;20044;-70
2021/12/30 01:01:34;;;;;;;29.40;9.50;;;;;;;10.49;100.00;101038.41;5088937;28;20024;-70
2021/12/30 01:03:59;;;;;;;21.90;6.88;;;;;;;10.52;100.00;101037.19;5088255;28;20043;-70
2021/12/30 01:06:24;;;;;;;26.95;7.30;;;;;;;10.50;100.00;101037.38;5072152;28;20028;-70
2021/12/30 01:08:50;;;;;;;26.20;8.23;;;;;;;10.50;100.00;101029.38;5069302;28;20074;-70
2021/12/30 01:11:16;;;;;;;25.33;7.80;;;;;;;10.51;100.00;101028.38;5067420;28;20043;-70
2021/12/30 01:13:45;;;;;;;18.75;6.47;;;;;;;10.56;100.00;101034.97;5088868;28;20073;-69
2021/12/30 01:16:22;;;;;;;28.67;6.35;;;;;;;10.55;100.00;101033.31;5089108;28;20034;-70
2021/12/30 01:21:26;;;;;;;23.13;6.68;;;;;;;10.58;100.00;101043.59;5070906;28;20032;-70
2021/12/30 01:23:53;;;;;;;31.30;7.22;;;;;;;10.59;100.00;101046.09;5092817;28;20031;-69
2021/12/30 01:26:18;;;;;;;24.58;6.13;;;;;;;10.60;100.00;101050.38;5093036;28;20028;-70
2021/12/30 01:28:45;;;;;;;18.95;7.55;;;;;;;10.61;100.00;101048.53;5093084;28;20043;-70
2021/12/30 01:31:11;;;;;;;27.73;9.25;;;;;;;10.60;100.00;101042.38;5092824;28;20142;-70
2021/12/30 01:33:39;;;;;;;22.38;6.45;;;;;;;10.63;100.00;101050.00;5092376;28;20118;-70
2021/12/30 01:36:04;;;;;;;28.73;5.20;;;;;;;10.64;100.00;101050.84;5091490;28;20028;-70
2021/12/30 01:38:30;;;;;;;20.00;5.43;;;;;;;10.64;100.00;101050.84;5091484;28;20062;-70
2021/12/30 01:41:00;;;;;;;17.75;4.25;;;;;;;10.68;100.00;101049.44;5092191;28;20031;-70
2021/12/30 01:43:25;;;;;;;26.30;6.00;;;;;;;10.69;100.00;101053.78;5092499;28;20040;-70
2021/12/30 01:45:51;;;;;;;25.88;5.72;;;;;;;10.72;100.00;101048.88;5092497;28;20031;-70
2021/12/30 01:48:16;;;;;;;26.23;6.45;;;;;;;10.75;100.00;101045.81;5077365;28;20028;-70
2021/12/30 01:50:42;;;;;;;24.52;5.55;;;;;;;10.78;100.00;101047.25;5072767;28;20024;-69
2021/12/30 01:53:09;;;;;;;23.92;5.55;;;;;;;10.82;100.00;101045.88;5072889;28;20024;-70
2021/12/30 01:55:37;;;;;;;21.00;6.72;;;;;;;10.82;100.00;101027.19;5072915;28;20398;-70
2021/12/30 01:58:05;;;;;;;25.15;6.80;;;;;;;10.86;100.00;101039.13;5072587;28;20028;-70
2021/12/30 02:00:32;;;;;;;25.30;6.80;;;;;;;10.87;100.00;101034.59;5092313;28;20027;-70
2021/12/30 02:02:58;;;;;;;21.77;6.45;;;;;;;10.91;100.00;101038.53;5074676;28;20380;-70
2021/12/30 02:05:24;;;;;;;19.33;5.03;;;;;;;10.94;100.00;101040.81;5072403;28;20060;-70
2021/12/30 02:07:49;;;;;;;24.65;6.35;;;;;;;10.98;100.00;101042.09;5072712;28;20059;-70
2021/12/30 02:10:15;;;;;;;27.88;7.20;;;;;;;11.01;100.00;101033.69;5072164;28;20391;-70
2021/12/30 02:12:42;;;;;;;25.20;5.82;;;;;;;11.04;100.00;101029.81;5091125;28;20677;-70
2021/12/30 02:15:11;;;;;;;23.83;8.10;;;;;;;11.07;100.00;101042.75;5091987;28;20101;-70
2021/12/30 02:17:37;;;;;;;19.67;6.53;;;;;;;11.07;100.00;101048.09;5090505;28;20039;-70
2021/12/30 02:20:10;;;;;;;25.35;7.55;;;;;;;11.14;100.00;101056.97;5091600;28;20023;-70
2021/12/30 02:22:36;;;;;;;26.90;7.40;;;;;;;11.16;100.00;101065.59;5091137;28;20032;-69
2021/12/30 02:25:04;;;;;;;20.27;6.50;;;;;;;11.18;100.00;101069.72;5091792;28;20031;-70
2021/12/30 02:27:29;;;;;;;27.55;9.27;;;;;;;11.18;100.00;101066.22;5091874;28;20106;-69
2021/12/30 02:29:54;;;;;;;26.20;8.52;;;;;;;11.19;100.00;101063.38;5076362;28;20127;-70
2021/12/30 02:32:21;;;;;;;28.13;10.05;;;;;;;11.22;100.00;101067.50;5072117;28;20028;-70
2021/12/30 02:34:47;;;;;;;25.50;6.40;;;;;;;11.22;100.00;101064.84;5071795;28;20098;-70
2021/12/30 02:37:16;;;;;;;28.08;7.60;;;;;;;11.24;100.00;101062.78;5091663;28;20024;-70
2021/12/30 02:39:44;;;;;;;24.98;8.88;;;;;;;11.24;100.00;101062.78;5091622;28;20507;-70
2021/12/30 02:42:10;;;;;;;28.95;8.77;;;;;;;11.25;100.00;101067.09;5091529;28;20028;-70
2021/12/30 02:44:35;;;;;;;23.45;7.57;;;;;;;11.27;100.00;101067.75;5091516;28;20032;-70
2021/12/30 02:47:01;;;;;;;22.65;6.97;;;;;;;11.26;100.00;101060.72;5091407;28;20043;-70
2021/12/30 02:49:26;;;;;;;27.67;8.63;;;;;;;11.27;100.00;101067.75;5091399;28;20055;-70
2021/12/30 02:51:52;;;;;;;29.30;9.82;;;;;;;11.27;100.00;101062.41;5091184;28;20032;-70
2021/12/30 02:54:18;;;;;;;25.67;8.68;;;;;;;11.28;100.00;101055.22;5091408;28;20032;-70
2021/12/30 02:56:47;;;;;;;15.50;5.40;;;;;;;11.29;100.00;101054.19;5091443;28;20024;-70
2021/12/30 02:59:13;;;;;;;22.98;7.80;;;;;;;11.31;100.00;101065.50;5091411;28;20028;-70
2021/12/30 03:01:39;;;;;;;24.80;6.72;;;;;;;11.30;100.00;101071.88;5091003;28;20143;-70
2021/12/30 03:04:04;;;;;;;15.90;5.10;;;;;;;11.31;100.00;101071.66;5090842;28;20038;-70
2021/12/30 03:06:31;;;;;;;22.60;5.53;;;;;;;11.32;100.00;101075.16;5090999;28;20035;-70
2021/12/30 03:08:56;;;;;;;18.33;5.63;;;;;;;11.33;100.00;101079.47;5090892;28;20074;-70
2021/12/30 03:11:24;;;;;;;14.88;5.35;;;;;;;11.31;100.00;101074.31;5072763;28;20582;-69
2021/12/30 03:13:49;;;;;;;23.70;7.75;;;;;;;11.33;100.00;101082.97;5070823;28;20028;-70
2021/12/30 03:16:25;;;;;;;19.38;6.28;;;;;;;11.34;100.00;101081.97;5070446;28;20051;-70
2021/12/30 03:18:50;;;;;;;13.80;5.43;;;;;;;11.35;100.00;101074.78;5069854;28;20058;-70
2021/12/30 03:21:19;;;;;;;20.00;5.93;;;;;;;11.33;100.00;101074.13;5071530;28;20032;-69
2021/12/30 03:23:45;;;;;;;13.77;5.18;;;;;;;11.36;100.00;101079.09;5071318;28;20395;-69
2021/12/30 03:26:11;;;;;;;16.77;6.22;;;;;;;11.33;100.00;101077.63;5071080;28;20025;-69
2021/12/30 03:28:41;;;;;;;16.02;4.65;;;;;;;11.36;100.00;101095.09;5071272;28;20125;-69
2021/12/30 03:31:13;;;;;;;16.40;6.03;;;;;;;11.35;100.00;101088.94;5071226;28;20032;-69
2021/12/30 03:33:39;;;;;;;14.13;5.10;;;;;;;11.35;100.00;101080.94;5071092;28;20043;-69
2021/12/30 03:36:06;;;;;;;12.68;5.28;;;;;;;11.34;100.00;101079.28;5089991;28;20077;-69
2021/12/30 03:38:35;;;;;;;11.98;4.45;;;;;;;11.33;100.00;101072.28;5089050;28;20034;-69
2021/12/30 03:41:01;;;;;;;10.82;4.72;;;;;;;11.33;100.00;101079.47;5090178;28;20387;-69
2021/12/30 03:43:27;;;;;;;12.30;4.05;;;;;;;11.33;100.00;101085.63;5090362;28;20024;-69
2021/12/30 03:45:53;;;;;;;12.25;5.18;;;;;;;11.29;100.00;101072.88;5088727;28;20417;-69
2021/12/30 03:48:18;;;;;;;15.85;4.25;;;;;;;11.33;100.00;101082.97;5090134;28;20049;-69
2021/12/30 03:50:45;;;;;;;13.52;4.15;;;;;;;11.33;100.00;101079.47;5089417;28;20040;-69
2021/12/30 03:53:15;;;;;;;13.23;4.60;;;;;;;11.33;100.00;101080.28;5089948;28;20379;-69
2021/12/30 03:55:41;;;;;;;9.52;3.63;;;;;;;11.33;100.00;101082.97;5090301;28;20355;-69
2021/12/30 03:58:07;;;;;;;9.73;3.85;;;;;;;11.33;100.00;101074.13;5070743;28;20037;-69
2021/12/30 04:00:35;;;;;;;11.63;4.00;;;;;;;11.33;100.00;101068.81;5070738;28;20498;-69
2021/12/30 04:03:00;;;;;;;9.82;3.30;;;;;;;11.35;100.00;101070.25;5070324;28;20048;-69
2021/12/30 04:05:25;;;;;;;10.65;3.35;;;;;;;11.37;100.00;101075.38;5083167;28;20053;-69
2021/12/30 04:07:51;;;;;;;12.68;4.53;;;;;;;11.38;100.00;101061.84;5070512;28;20044;-69
2021/12/30 04:10:21;;;;;;;8.23;2.80;;;;;;;11.39;100.00;101076.84;5070286;28;20039;-69
2021/12/30 04:12:47;;;;;;;7.00;3.35;;;;;;;11.38;100.00;101069.03;5070041;28;20142;-69
2021/12/30 04:15:12;;;;;;;9.38;3.25;;;;;;;11.43;100.00;101079.13;5070310;28;20111;-69
2021/12/30 04:17:37;;;;;;;7.57;2.75;;;;;;;11.43;100.00;101079.13;5069947;28;20031;-69
2021/12/30 04:20:07;;;;;;;7.47;2.85;;;;;;;11.41;100.00;101082.81;5069931;28;20020;-69
2021/12/30 04:22:33;;;;;;;7.95;3.63;;;;;;;11.49;100.00;101091.69;5070061;28;20487;-69
2021/12/30 04:24:59;;;;;;;9.05;3.47;;;;;;;11.49;100.00;101089.84;5089429;28;20039;-69
2021/12/30 04:27:24;;;;;;;12.45;3.70;;;;;;;11.51;100.00;101084.31;5089537;28;20032;-69
2021/12/30 04:29:50;;;;;;;10.32;3.80;;;;;;;11.52;100.00;101081.44;5089475;28;20155;-69
2021/12/30 04:32:15;;;;;;;10.15;4.00;;;;;;;11.54;100.00;101092.75;5084510;28;20040;-69
2021/12/30 04:34:40;;;;;;;12.27;4.80;;;;;;;11.53;100.00;101091.09;5069510;28;20043;-69
2021/12/30 04:37:06;;;;;;;14.60;5.03;;;;;;;11.61;100.00;101106.16;5069995;28;20434;-69
2021/12/30 04:39:31;;;;;;;15.32;5.53;;;;;;;11.64;100.00;101092.41;5069344;28;20029;-69
2021/12/30 04:42:01;;;;;;;15.52;5.78;;;;;;;11.68;100.00;101096.31;5069994;28;20468;-69
2021/12/30 04:44:30;;;;;;;18.60;7.45;;;;;;;11.63;100.00;101082.72;5089316;28;20069;-69
2021/12/30 04:46:56;;;;;;;17.45;8.00;;;;;;;11.75;100.00;101097.16;5089246;28;20028;-69
2021/12/30 04:49:22;;;;;;;15.85;6.38;;;;;;;11.76;100.00;101095.31;5089265;28;20023;-69
2021/12/30 04:51:47;;;;;;;19.58;7.80;;;;;;;11.72;100.00;101081.53;5089200;28;20489;-69
2021/12/30 04:54:13;;;;;;;20.60;9.55;;;;;;;11.79;100.00;101097.63;5089300;28;20039;-69
2021/12/30 04:56:38;;;;;;;19.27;8.02;;;;;;;11.81;100.00;101103.56;5092343;28;20035;-70
2021/12/30 04:59:04;;;;;;;20.42;9.65;;;;;;;11.82;100.00;101099.88;5095242;28;20031;-69
2021/12/30 05:01:29;;;;;;;21.77;10.50;;;;;;;11.89;100.00;101091.91;5095553;28;20026;-69
2021/12/30 05:03:54;;;;;;;23.27;10.65;;;;;;;11.92;100.00;101091.50;5095639;28;20035;-69
2021/12/30 05:06:20;;;;;;;23.02;11.27;;;;;;;11.88;100.00;101079.59;5095935;28;20162;-69
2021/12/30 05:08:45;;;;;;;22.83;11.50;;;;;;;11.96;100.00;101088.25;5094556;28;20034;-69
2021/12/30 05:11:11;;;;;;;22.35;10.60;;;;;;;12.00;100.00;101094.03;5095862;28;20040;-69
2021/12/30 05:13:36;;;;;;;23.55;11.63;;;;;;;12.04;100.00;101087.25;5095320;28;20031;-69
2021/12/30 05:16:01;;;;;;;24.80;11.88;;;;;;;12.07;100.00;101093.00;5095742;28;20067;-70
2021/12/30 05:18:31;;;;;;;24.10;12.10;;;;;;;12.09;100.00;101095.50;5095614;28;20052;-69
2021/12/30 05:20:59;;;;;;;24.45;12.05;;;;;;;12.10;100.00;101094.47;5093901;28;20441;-69
2021/12/30 05:23:24;;;;;;;24.17;12.02;;;;;;;12.13;100.00;101090.56;5096006;28;20052;-70
2021/12/30 05:25:50;;;;;;;22.27;11.55;;;;;;;12.12;100.00;101092.41;5095556;28;20479;-70
2021/12/30 05:28:15;;;;;;;26.70;12.70;;;;;;;12.16;100.00;101096.34;5095791;28;20031;-69
2021/12/30 05:30:41;;;;;;;25.08;12.30;;;;;;;12.16;100.00;101098.22;5092545;28;20037;-69
2021/12/30 05:33:06;;;;;;;24.25;13.00;;;;;;;12.18;100.00;101101.47;5076388;28;20357;-69
2021/12/30 05:35:31;;;;;;;24.63;12.95;;;;;;;12.17;100.00;101106.00;5075955;28;20040;-69
2021/12/30 05:37:59;;;;;;;25.67;12.02;;;;;;;12.20;100.00;101118.97;5076307;28;20159;-69
2021/12/30 05:40:24;;;;;;;25.58;13.35;;;;;;;12.22;100.00;101124.94;5076180;28;20360;-69
2021/12/30 05:42:50;;;;;;;22.83;13.10;;;;;;;12.23;100.00;101128.44;5076331;28;20032;-69
2021/12/30 05:45:16;;;;;;;26.30;13.57;;;;;;;12.23;100.00;101131.94;5075990;28;20029;-69
2021/12/30 05:47:46;;;;;;;25.50;14.27;;;;;;;12.24;100.00;101143.47;5076232;28;20074;-69
2021/12/30 05:50:13;;;;;;;25.67;12.55;;;;;;;12.25;100.00;101140.59;5095480;28;20036;-70
2021/12/30 05:52:39;;;;;;;25.33;14.27;;;;;;;12.27;100.00;101143.91;5095360;28;20027;-69
2021/12/30 05:55:06;;;;;;;26.70;14.23;;;;;;;12.30;100.00;101142.66;5095601;28;20028;-69
2021/12/30 05:57:32;;;;;;;26.23;14.93;;;;;;;12.33;100.00;101146.78;5095150;28;20098;-69
2021/12/30 05:59:58;;;;;;;26.20;14.73;;;;;;;12.29;100.00;101141.03;5095175;28;20114;-69
2021/12/30 06:02:24;;;;;;;26.10;12.63;;;;;;;12.33;100.00;101147.63;5093988;28;20098;-69
2021/12/30 06:04:49;;;;;;;23.42;12.20;;;;;;;12.36;100.00;101151.75;5095176;28;20040;-70
2021/12/30 06:07:15;;;;;;;23.75;14.02;;;;;;;12.38;100.00;101147.00;5093675;28;20107;-70
2021/12/30 06:09:41;;;;;;;24.77;13.77;;;;;;;12.38;100.00;101147.84;5091405;28;20036;-69
2021/12/30 06:12:07;;;;;;;21.20;11.23;;;;;;;12.35;100.00;101134.06;5091869;28;20027;-70
2021/12/30 06:14:33;;;;;;;20.65;11.25;;;;;;;12.39;100.00;101138.81;5090036;28;20043;-69
2021/12/30 06:16:58;;;;;;;19.13;9.32;;;;;;;12.43;100.00;101117.81;5091916;28;20040;-69
2021/12/30 06:19:23;;;;;;;12.90;6.93;;;;;;;12.49;100.00;101138.41;5091841;28;20062;-69
2021/12/30 06:21:49;;;;;;;13.90;7.22;;;;;;;12.51;100.00;101139.03;5091450;28;20020;-69
2021/12/30 06:24:14;;;;;;;14.50;6.95;;;;;;;12.52;100.00;101148.69;5091756;28;20490;-69
2021/12/30 06:26:40;;;;;;;11.70;6.70;;;;;;;12.54;100.00;101153.84;5089678;28;20065;-69
2021/12/30 06:29:05;;;;;;;14.68;6.50;;;;;;;12.56;100.00;101149.13;5089892;28;20467;-69
2021/12/30 06:31:31;;;;;;;13.80;6.85;;;;;;;12.55;100.00;101145.63;5091364;28;20032;-69
2021/12/30 06:33:56;;;;;;;11.57;5.93;;;;;;;12.57;100.00;101148.09;5091384;28;20052;-69
2021/12/30 06:36:21;;;;;;;12.18;6.40;;;;;;;12.56;100.00;101147.28;5091576;28;20036;-69
2021/12/30 06:38:48;;;;;;;9.15;5.32;;;;;;;12.56;100.00;101154.47;5091341;28;20570;-69
2021/12/30 06:41:14;;;;;;;11.48;5.68;;;;;;;12.53;100.00;101141.50;5090135;28;20031;-69
2021/12/30 06:43:39;;;;;;;16.80;7.43;;;;;;;12.56;100.00;101157.16;5091514;28;20032;-69
2021/12/30 06:46:05;;;;;;;14.25;6.15;;;;;;;12.55;100.00;101179.56;5091303;28;20028;-69
2021/12/30 06:48:31;;;;;;;14.27;6.90;;;;;;;12.55;100.00;101168.88;5091472;28;20463;-69
2021/12/30 06:50:59;;;;;;;14.55;6.80;;;;;;;12.54;100.00;101170.72;5091164;28;20089;-69
2021/12/30 06:53:25;;;;;;;14.65;7.50;;;;;;;12.55;100.00;101163.50;5091133;28;20086;-69
2021/12/30 06:55:52;;;;;;;15.13;7.13;;;;;;;12.57;100.00;101173.00;5091153;28;20032;-70
2021/12/30 06:58:19;;;;;;;16.65;7.82;;;;;;;12.58;100.00;101179.19;5091232;28;20032;-69
2021/12/30 07:00:45;;;;;;;16.58;8.07;;;;;;;12.58;100.00;101185.34;5071783;28;20028;-69
2021/12/30 07:03:10;;;;;;;15.95;7.38;;;;;;;12.58;100.00;101188.03;5071190;28;20064;-69
2021/12/30 07:05:36;;;;;;;16.67;7.82;;;;;;;12.62;100.00;101191.13;5071896;28;20036;-70
2021/12/30 07:08:02;;;;;;;14.30;6.80;;;;;;;12.61;100.00;101198.31;5071179;28;20434;-69
2021/12/30 07:10:28;;;;;;;16.48;8.85;;;;;;;12.60;100.00;101202.03;5071406;28;20116;-70
2021/12/30 07:12:54;;;;;;;15.82;8.00;;;;;;;12.62;100.00;101209.84;5071755;28;20587;-70
2021/12/30 07:15:19;;;;;;;15.93;8.00;;;;;;;12.63;100.00;101201.63;5071278;28;20142;-70
2021/12/30 07:17:45;;;;;;;14.77;7.82;;;;;;;12.65;100.00;101204.09;5071191;28;20070;-69
2021/12/30 07:20:11;;;;;;;15.35;7.63;;;;;;;12.66;100.00;101211.13;5072697;28;20029;-70
2021/12/30 07:22:37;;;;;;;14.30;8.00;;;;;;;12.68;100.00;101206.34;5070646;28;20111;-70
2021/12/30 07:25:03;;;;;;;14.57;7.20;;;;;;;12.70;100.00;101215.84;5085461;28;20028;-70
2021/12/30 07:27:29;;;;;;;17.05;8.35;;;;;;;12.71;100.00;101216.69;5090619;28;20027;-70
2021/12/30 07:29:55;;;;;;;14.57;6.85;;;;;;;12.72;100.00;101221.00;5090439;28;20032;-69
2021/12/30 07:32:20;;;;;;;15.98;7.75;;;;;;;12.70;100.00;101207.81;5090591;28;20055;-69
2021/12/30 07:34:45;;;;;;;15.48;8.48;;;;;;;12.70;100.00;101223.88;5069677;28;20063;-70
2021/12/30 07:37:14;;;;;;;16.20;8.18;;;;;;;12.70;100.00;101225.72;5071062;28;20035;-70
2021/12/30 07:39:43;;;;;;;17.63;8.82;;;;;;;12.73;100.00;101219.97;5090016;28;20038;-70
2021/12/30 07:42:09;;;;;;;15.93;9.02;;;;;;;12.74;100.00;101240.38;5090307;28;20429;-70
2021/12/30 07:44:34;;;;;;;17.00;8.88;;;;;;;12.75;100.00;101246.53;5090334;28;20043;-70
2021/12/30 07:47:00;;;;;;;18.10;9.05;;;;;;;12.75;100.00;101239.31;5090282;28;20502;-70
2021/12/30 07:49:25;;;;;;;18.67;9.23;;;;;;;12.75;100.00;101235.84;5090249;28;20037;-70
2021/12/30 07:51:50;;;;;;;18.05;10.00;;;;;;;12.77;100.00;101245.31;5090148;28;20024;-70
2021/12/30 07:54:16;;;;;;;20.17;9.80;;;;;;;12.76;100.00;101241.00;5090129;28;20437;-70
2021/12/30 07:56:41;;;;;;;19.52;10.38;;;;;;;12.79;100.00;101245.13;5090114;28;20032;-70
2021/12/30 07:59:07;;;;;;;16.33;9.43;;;;;;;12.79;100.00;101245.94;5090074;28;20040;-70
2021/12/30 08:01:33;;;;;;;17.73;10.13;;;;;;;12.78;100.00;101246.13;5089943;28;20422;-70
2021/12/30 08:03:58;;;;;;;20.55;10.05;;;;;;;12.79;100.00;101247.81;5089466;28;20495;-70
2021/12/30 08:06:27;;;;;;;19.92;10.75;;;;;;;12.80;100.00;101246.75;5089912;28;20039;-70
2021/12/30 08:08:52;;;;;;;18.55;9.93;;;;;;;12.80;100.00;101246.75;5088538;28;20065;-70
2021/12/30 08:11:17;;;;;;;18.20;10.48;;;;;;;12.80;100.00;101246.75;5070218;28;20084;-70
2021/12/30 08:13:43;;;;;;;18.60;10.23;;;;;;;12.79;100.00;101247.81;5070253;28;20028;-70
2021/12/30 08:16:08;;;;;;;18.80;9.82;;;;;;;12.78;100.00;101262.19;5070504;28;20028;-70
2021/12/30 08:18:33;;;;;;;17.10;9.75;;;;;;;12.76;100.00;101267.75;5069044;28;20028;-70
2021/12/30 08:20:59;;;;;;;18.65;9.65;;;;;;;12.75;100.00;101275.97;5072982;28;20016;-70
2021/12/30 08:23:24;;;;;;;17.50;8.90;;;;;;;12.71;100.00;101271.03;5089520;28;20425;-69
2021/12/30 08:25:51;;;;;;;16.42;8.55;;;;;;;12.70;100.00;101280.06;5089551;28;20054;-70
2021/12/30 08:28:17;;;;;;;17.75;8.07;;;;;;;12.71;100.00;101288.94;5089674;28;20066;-70
2021/12/30 08:30:43;;;;;;;16.27;8.10;;;;;;;12.71;100.00;101281.75;5088826;28;20032;-70
2021/12/30 08:33:09;;;;;;;14.02;7.60;;;;;;;12.75;100.00;101278.66;5089361;28;20115;-69
2021/12/30 08:35:35;;;;;;;20.48;7.90;;;;;;;12.77;100.00;101279.28;5087775;28;20544;-72
2021/12/30 08:38:00;;;;;;;14.98;6.53;;;;;;;12.78;100.00;101275.56;5070013;28;20024;-70
2021/12/30 08:40:26;;;;;;;13.38;7.00;;;;;;;12.81;100.00;101277.84;5088991;28;20088;-70
2021/12/30 08:42:51;;;;;;;12.15;5.20;;;;;;;12.82;100.00;101271.47;5083207;28;20375;-70
2021/12/30 08:45:17;;;;;;;13.20;5.40;;;;;;;12.79;100.00;101263.84;5069929;28;20075;-70
2021/12/30 08:47:44;;;;;;;12.25;5.55;;;;;;;12.83;100.00;101276.63;5069863;28;20025;-70
2021/12/30 08:50:13;;;;;;;9.95;4.55;;;;;;;12.84;100.00;101274.78;5069738;28;20024;-70
2021/12/30 08:52:40;;;;;;;10.23;4.03;;;;;;;12.83;100.00;101271.25;5069883;28;20024;-69
2021/12/30 08:55:07;;;;;;;7.00;3.53;;;;;;;12.89;100.00;101283.88;5074606;28;20028;-72
2021/12/30 08:57:37;;;;;;;9.27;3.80;;;;;;;12.92;100.00;101293.34;5086572;28;20035;-69
2021/12/30 09:00:05;;;;;;;7.15;3.95;;;;;;;12.94;100.00;101300.16;5069935;28;20039;-70
2021/12/30 09:02:31;;;;;;;9.35;3.85;;;;;;;12.99;100.00;101309.41;5069684;28;20035;-70
2021/12/30 09:04:56;;;;;;;7.35;3.42;;;;;;;13.00;100.00;101305.72;5069512;28;20044;-70
2021/12/30 09:07:22;;;;;;;5.60;2.83;;;;;;;13.02;100.00;101317.03;5069467;28;20086;-70
2021/12/30 09:09:47;;;;;;;4.53;3.20;;;;;;;13.07;100.00;101314.59;5069728;28;20032;-70
2021/12/30 09:12:12;;;;;;;7.68;3.35;;;;;;;13.08;100.00;101313.56;5069577;28;20036;-69
2021/12/30 09:14:38;;;;;;;5.90;2.90;;;;;;;13.10;100.00;101316.88;5088766;28;20032;-72
2021/12/30 09:17:04;;;;;;;6.00;3.38;;;;;;;13.13;100.00;101314.63;5074849;28;20047;-73
2021/12/30 09:19:30;;;;;;;5.85;3.42;;;;;;;13.15;100.00;101312.56;5069483;28;20029;-72
2021/12/30 09:21:56;;;;;;;8.77;3.95;;;;;;;13.20;100.00;101313.81;5084249;28;20024;-74
2021/12/30 09:24:23;;;;;;;9.35;4.10;;;;;;;13.25;100.00;101314.00;5069237;28;20078;-73
2021/12/30 09:26:48;;;;;;;11.43;4.97;;;;;;;13.32;100.00;101315.72;5077578;28;20040;-73
2021/12/30 09:29:14;;;;;;;6.78;3.38;;;;;;;13.35;100.00;101325.19;5088993;28;20378;-74
2021/12/30 09:31:42;;;;;;;9.00;4.43;;;;;;;13.41;100.00;101320.88;5088682;28;20024;-74
2021/12/30 09:34:07;;;;;;;10.00;3.30;;;;;;;13.40;100.00;101312.03;5074197;28;20547;-74
2021/12/30 09:36:33;;;;;;;9.95;4.15;;;;;;;13.43;100.00;101325.00;5079248;28;20119;-74
2021/12/30 09:38:59;;;;;;;7.93;3.92;;;;;;;13.46;100.00;101323.78;5079832;28;20506;-74
2021/12/30 09:41:25;;;;;;;7.18;3.35;;;;;;;13.48;100.00;101322.53;5078456;28;20020;-73
2021/12/30 09:43:51;;;;;;;8.13;4.32;;;;;;;13.50;100.00;101320.50;5090114;28;20700;-73
2021/12/30 09:46:17;;;;;;;8.25;4.20;;;;;;;13.57;100.00;101323.16;5073046;28;20035;-73
2021/12/30 09:48:43;;;;;;;10.00;5.22;;;;;;;13.64;99.92;101332.03;5081270;28;20399;-73
2021/12/30 09:51:09;;;;;;;12.88;4.07;;;;;;;13.63;99.34;101327.72;5078828;28;20036;-73
2021/12/30 09:53:34;;;;;;;9.43;3.42;;;;;;;13.69;99.22;101352.88;5087665;28;20570;-73
2021/12/30 09:56:00;;;;;;;9.13;3.70;;;;;;;13.69;98.83;101352.88;5078864;28;20043;-72
2021/12/30 09:58:27;;;;;;;9.13;3.33;;;;;;;13.69;98.20;101348.34;5079739;28;20064;-73
2021/12/30 10:00:53;;;;;;;11.02;3.85;;;;;;;13.68;97.85;101345.88;5084776;28;20040;-74
2021/12/30 10:03:18;;;;;;;11.52;3.65;;;;;;;13.67;97.97;101345.03;5087999;28;20094;-73
2021/12/30 10:05:44;;;;;;;8.45;3.67;;;;;;;13.65;97.65;101340.91;5083607;28;20032;-74
2021/12/30 10:08:24;;;;;;;12.98;3.70;;;;;;;13.65;97.72;101339.06;5078348;28;20033;-74
2021/12/30 10:10:57;;;;;;;10.15;4.50;;;;;;;13.67;97.77;101355.75;5088410;28;20395;-74
2021/12/30 10:13:27;;;;;;;9.35;3.28;;;;;;;13.69;97.01;101336.78;5087563;28;20113;-73
2021/12/30 10:15:56;;;;;;;8.48;3.58;;;;;;;13.70;97.63;101349.16;5072673;28;20375;-73
2021/12/30 10:18:24;;;;;;;5.88;3.22;;;;;;;13.68;97.53;101352.06;5072647;28;20448;-73
2021/12/30 10:20:50;;;;;;;10.48;4.35;;;;;;;13.75;97.80;101350.22;5072499;28;20028;-73
2021/12/30 10:23:24;;;;;;;8.70;3.80;;;;;;;13.79;97.02;101362.16;5073858;28;20029;-73
2021/12/30 10:25:52;;;;;;;9.13;3.47;;;;;;;13.85;96.52;101348.97;5089578;28;20160;-73
2021/12/30 10:28:20;;;;;;;12.30;3.85;;;;;;;13.91;96.15;101348.97;5073376;28;20353;-73
2021/12/30 10:30:47;;;;;;;11.68;4.15;;;;;;;13.86;95.46;101355.97;5089433;28;20074;-74
2021/12/30 10:33:16;;;;;;;10.40;3.80;;;;;;;13.87;95.60;101354.94;5084035;28;20037;-73
2021/12/30 10:35:42;;;;;;;11.93;4.00;;;;;;;13.84;95.48;101361.56;5083865;28;20028;-74
2021/12/30 10:38:11;;;;;;;10.82;4.63;;;;;;;13.81;95.39;101368.16;5091657;28;20069;-73
2021/12/30 10:40:43;;;;;;;8.68;2.97;;;;;;;13.77;95.23;101356.16;5091516;28;20062;-73
2021/12/30 10:43:24;;;;;;;8.07;3.78;;;;;;;13.65;95.43;101354.31;5077023;28;20025;-73
2021/12/30 10:46:07;;;;;;;9.15;3.30;;;;;;;13.70;96.29;101368.75;5091375;28;20051;-73
2021/12/30 10:48:33;;;;;;;8.50;3.78;;;;;;;13.63;95.27;101359.06;5075585;28;20033;-72
2021/12/30 10:51:13;;;;;;;9.70;2.75;;;;;;;13.64;95.74;101374.94;5071883;28;20085;-72
2021/12/30 10:53:39;;;;;;;10.70;3.92;;;;;;;13.65;95.68;101376.59;5071375;28;20107;-73
2021/12/30 10:56:36;;;;;;;8.43;3.40;;;;;;;13.68;95.68;101360.09;5071723;28;20598;-73
2021/12/30 10:59:09;;;;;;;10.98;4.30;;;;;;;13.67;95.39;101373.69;5071746;28;20028;-73
2021/12/30 11:01:54;;;;;;;6.45;2.83;;;;;;;13.69;95.69;101368.97;5071417;28;20376;-74
2021/12/30 11:04:21;;;;;;;7.93;3.42;;;;;;;13.72;95.20;101368.53;5089659;28;20067;-73
2021/12/30 11:06:47;;;;;;;9.63;3.55;;;;;;;13.75;94.73;101368.13;5091000;28;20105;-74
2021/12/30 11:09:19;;;;;;;12.27;3.05;;;;;;;13.82;94.74;101377.00;5083059;28;20024;-74